createdAt,value
2019-05-25T00:00:13.044Z,9.40
2019-05-25T00:02:42.563Z,9.17
2019-05-25T00:05:12.116Z,10.37
2019-05-25T00:07:41.616Z,10.00
2019-05-25T00:10:11.305Z,12.33
2019-05-25T00:12:40.933Z,11.27
2019-05-25T00:15:10.548Z,10.83
2019-05-25T00:17:40.045Z,11.83
2019-05-25T00:20:09.686Z,11.33
2019-05-25T00:22:39.266Z,10.43
2019-05-25T00:25:09.002Z,13.60
2019-05-25T00:27:38.555Z,11.33
2019-05-25T00:30:08.322Z,12.47
2019-05-25T00:32:37.793Z,9.13
2019-05-25T00:35:07.348Z,9.47
2019-05-25T00:37:36.864Z,9.03
2019-05-25T00:40:07.283Z,9.40
2019-05-25T00:42:36.797Z,9.63
2019-05-25T00:45:06.528Z,10.37
2019-05-25T00:47:36.036Z,9.37
2019-05-25T00:50:07.670Z,10.30
2019-05-25T00:52:37.256Z,10.57
2019-05-25T00:55:07.807Z,9.73
2019-05-25T00:57:37.454Z,10.27
2019-05-25T01:00:07.578Z,10.53
2019-05-25T01:02:39.053Z,11.57
2019-05-25T01:05:08.970Z,10.13
2019-05-25T01:07:38.499Z,12.47
2019-05-25T01:10:08.548Z,11.17
2019-05-25T01:12:38.179Z,10.03
2019-05-25T01:15:08.725Z,10.23
2019-05-25T01:17:38.341Z,9.80
2019-05-25T01:20:09.170Z,9.97
2019-05-25T01:22:38.941Z,12.13
2019-05-25T01:25:08.869Z,10.70
2019-05-25T01:27:38.402Z,10.00
2019-05-25T01:30:10.059Z,10.67
2019-05-25T01:32:39.850Z,9.13
2019-05-25T01:35:09.535Z,10.53
2019-05-25T01:37:39.214Z,9.93
2019-05-25T01:40:11.178Z,11.00
2019-05-25T01:42:40.696Z,12.80
2019-05-25T01:45:10.401Z,10.70
2019-05-25T01:47:39.912Z,10.40
2019-05-25T01:50:09.701Z,9.17
2019-05-25T01:52:39.188Z,8.93
2019-05-25T01:55:08.735Z,15.47
2019-05-25T01:57:38.231Z,9.77
2019-05-25T02:00:09.055Z,10.73
2019-05-25T02:02:38.686Z,8.73
2019-05-25T02:05:08.483Z,11.30
2019-05-25T02:07:38.093Z,8.50
2019-05-25T02:10:09.319Z,9.60
2019-05-25T02:12:40.150Z,8.83
2019-05-25T02:15:10.140Z,9.93
2019-05-25T02:17:39.652Z,10.93
2019-05-25T02:20:09.642Z,10.43
2019-05-25T02:22:39.166Z,11.17
2019-05-25T02:25:17.626Z,9.60
2019-05-25T02:27:40.770Z,9.87
2019-05-25T02:30:11.459Z,9.77
2019-05-25T02:32:41.047Z,11.53
2019-05-25T02:35:15.825Z,9.87
2019-05-25T02:37:45.333Z,9.33
2019-05-25T02:40:14.899Z,9.50
2019-05-25T02:42:44.440Z,12.83
2019-05-25T02:45:14.027Z,12.03
2019-05-25T02:47:43.493Z,8.67
2019-05-25T02:50:13.132Z,9.33
2019-05-25T02:52:42.679Z,9.27
2019-05-25T02:55:12.532Z,8.60
2019-05-25T02:57:42.009Z,9.87
2019-05-25T03:00:11.921Z,10.63
2019-05-25T03:02:41.673Z,10.77
2019-05-25T03:05:13.971Z,10.07
2019-05-25T03:07:45.149Z,10.67
2019-05-25T03:10:15.887Z,12.60
2019-05-25T03:12:45.514Z,9.63
2019-05-25T03:15:15.379Z,9.00
2019-05-25T03:17:45.000Z,10.17
2019-05-25T03:20:14.668Z,9.07
2019-05-25T03:22:44.300Z,9.63
2019-05-25T03:25:13.858Z,9.67
2019-05-25T03:27:43.424Z,9.83
2019-05-25T03:30:13.154Z,11.27
2019-05-25T03:32:42.814Z,9.43
2019-05-25T03:35:12.518Z,9.90
2019-05-25T03:37:42.023Z,8.97
2019-05-25T03:40:11.731Z,9.30
2019-05-25T03:42:41.263Z,10.90
2019-05-25T03:45:10.933Z,8.07
2019-05-25T03:47:40.535Z,9.67
2019-05-25T03:50:10.304Z,9.40
2019-05-25T03:52:39.815Z,11.97
2019-05-25T03:55:09.536Z,9.97
2019-05-25T03:57:39.060Z,15.53
2019-05-25T04:00:09.496Z,11.57
2019-05-25T04:02:39.052Z,9.70
2019-05-25T04:05:08.621Z,15.47
2019-05-25T04:07:38.076Z,16.30
2019-05-25T04:10:07.718Z,9.93
2019-05-25T04:12:37.294Z,10.20
2019-05-25T04:15:07.804Z,11.13
2019-05-25T04:17:37.284Z,11.07
2019-05-25T04:20:07.542Z,8.13
2019-05-25T04:22:37.072Z,12.23
2019-05-25T04:25:06.908Z,7.90
2019-05-25T04:27:36.512Z,9.70
2019-05-25T04:30:06.686Z,12.60
2019-05-25T04:32:36.242Z,10.80
2019-05-25T04:35:06.178Z,11.23
2019-05-25T04:37:35.691Z,11.57
2019-05-25T04:40:06.135Z,14.27
2019-05-25T04:42:35.829Z,12.47
2019-05-25T04:45:06.781Z,10.23
2019-05-25T04:47:36.261Z,11.73
2019-05-25T04:50:07.511Z,18.80
2019-05-25T04:52:40.750Z,12.47
2019-05-25T04:55:08.677Z,13.28
2019-05-25T04:57:38.145Z,7.03
2019-05-25T05:00:09.504Z,7.55
2019-05-25T05:02:39.061Z,6.85
2019-05-25T05:05:08.607Z,7.15
2019-05-25T05:07:38.093Z,6.95
2019-05-25T05:10:08.093Z,7.05
2019-05-25T05:12:37.601Z,7.55
2019-05-25T05:15:07.362Z,10.30
2019-05-25T05:17:36.918Z,10.18
2019-05-25T05:20:07.903Z,10.25
2019-05-25T05:22:37.409Z,11.00
2019-05-25T05:25:08.891Z,7.45
2019-05-25T05:27:38.923Z,7.20
2019-05-25T05:30:09.587Z,8.05
2019-05-25T05:32:39.085Z,10.72
2019-05-25T05:35:08.866Z,6.97
2019-05-25T05:37:39.563Z,7.12
2019-05-25T05:40:09.596Z,8.55
2019-05-25T05:42:39.832Z,8.10
2019-05-25T05:45:09.370Z,8.68
2019-05-25T05:47:40.410Z,8.13
2019-05-25T05:50:10.651Z,8.40
2019-05-25T05:52:40.313Z,8.08
2019-05-25T05:55:11.351Z,7.95
2019-05-25T05:57:40.851Z,8.30
2019-05-25T06:00:11.685Z,7.70
2019-05-25T06:02:41.195Z,8.25
2019-05-25T06:05:11.036Z,8.43
2019-05-25T06:07:40.594Z,9.53
2019-05-25T06:10:10.416Z,10.25
2019-05-25T06:12:40.016Z,9.63
2019-05-25T06:15:09.908Z,9.13
2019-05-25T06:17:39.385Z,9.50
2019-05-25T06:20:10.098Z,9.78
2019-05-25T06:22:39.584Z,9.43
2019-05-25T06:25:09.713Z,9.03
2019-05-25T06:27:39.254Z,9.55
2019-05-25T06:30:09.510Z,9.10
2019-05-25T06:32:39.123Z,9.83
2019-05-25T06:35:09.365Z,9.33
2019-05-25T06:37:38.822Z,10.63
2019-05-25T06:40:09.670Z,10.23
2019-05-25T06:42:39.224Z,11.15
2019-05-25T06:45:09.424Z,10.03
2019-05-25T06:47:38.900Z,12.58
2019-05-25T06:50:09.038Z,10.53
2019-05-25T06:52:38.694Z,11.53
2019-05-25T06:55:08.258Z,11.78
2019-05-25T06:57:43.266Z,9.53
2019-05-25T07:00:09.543Z,10.13
2019-05-25T07:02:39.095Z,10.47
2019-05-25T07:05:10.097Z,9.93
2019-05-25T07:07:39.575Z,10.88
2019-05-25T07:10:09.625Z,9.80
2019-05-25T07:12:39.099Z,9.77
2019-05-25T07:15:09.399Z,10.65
2019-05-25T07:17:38.912Z,10.98
2019-05-25T07:20:08.665Z,10.60
2019-05-25T07:22:38.175Z,10.10
2019-05-25T07:25:08.209Z,11.25
2019-05-25T07:27:37.816Z,11.13
2019-05-25T07:30:07.808Z,10.58
2019-05-25T07:32:37.376Z,11.07
2019-05-25T07:35:07.744Z,12.18
2019-05-25T07:37:37.249Z,10.98
2019-05-25T07:40:08.607Z,10.95
2019-05-25T07:42:38.112Z,11.93
2019-05-25T07:45:08.391Z,11.73
2019-05-25T07:47:37.901Z,11.65
2019-05-25T07:50:07.934Z,11.83
2019-05-25T07:52:37.507Z,11.93
2019-05-25T07:55:07.858Z,11.12
2019-05-25T07:57:37.348Z,11.55
2019-05-25T08:00:07.582Z,12.30
2019-05-25T08:02:37.083Z,11.78
2019-05-25T08:05:07.878Z,14.00
2019-05-25T08:07:37.500Z,12.73
2019-05-25T08:10:07.269Z,12.95
2019-05-25T08:12:36.855Z,12.63
2019-05-25T08:15:06.997Z,14.25
2019-05-25T08:17:36.535Z,12.28
2019-05-25T08:20:06.596Z,13.10
2019-05-25T08:22:36.290Z,12.30
2019-05-25T08:25:07.644Z,13.45
2019-05-25T08:27:37.184Z,13.68
2019-05-25T08:30:08.628Z,11.73
2019-05-25T08:32:38.186Z,12.85
2019-05-25T08:35:07.935Z,15.78
2019-05-25T08:37:37.417Z,14.47
2019-05-25T08:40:07.724Z,16.50
2019-05-25T08:42:37.257Z,12.70
2019-05-25T08:45:07.527Z,13.60
2019-05-25T08:47:37.280Z,14.45
2019-05-25T08:50:08.001Z,14.28
2019-05-25T08:52:37.827Z,15.30
2019-05-25T08:55:07.723Z,14.95
2019-05-25T08:57:37.283Z,15.23
2019-05-25T09:00:07.214Z,15.53
2019-05-25T09:02:36.722Z,16.10
2019-05-25T09:05:07.181Z,16.55
2019-05-25T09:07:36.651Z,14.40
2019-05-25T09:10:08.081Z,16.07
2019-05-25T09:12:37.678Z,14.83
2019-05-25T09:15:07.445Z,14.57
2019-05-25T09:17:37.027Z,15.27
2019-05-25T09:20:07.887Z,17.83
2019-05-25T09:22:37.517Z,15.67
2019-05-25T09:25:08.355Z,16.80
2019-05-25T09:27:37.880Z,18.20
2019-05-25T09:30:09.135Z,19.87
2019-05-25T09:32:38.652Z,15.73
2019-05-25T09:35:08.568Z,17.80
2019-05-25T09:37:38.413Z,14.93
2019-05-25T09:40:08.353Z,14.70
2019-05-25T09:42:38.508Z,16.20
2019-05-25T09:45:09.293Z,16.47
2019-05-25T09:47:38.777Z,17.23
2019-05-25T09:50:08.742Z,16.67
2019-05-25T09:52:38.241Z,22.67
2019-05-25T09:55:08.775Z,17.67
2019-05-25T09:57:41.531Z,18.43
2019-05-25T10:00:12.324Z,19.17
2019-05-25T10:02:42.583Z,18.07
2019-05-25T10:05:13.008Z,18.67
2019-05-25T10:07:42.519Z,17.40
2019-05-25T10:10:12.695Z,18.73
2019-05-25T10:12:42.180Z,17.00
2019-05-25T10:15:12.119Z,16.57
2019-05-25T10:17:41.645Z,15.47
2019-05-25T10:20:11.163Z,16.93
2019-05-25T10:22:40.644Z,14.63
2019-05-25T10:25:10.623Z,20.83
2019-05-25T10:27:40.131Z,17.77
2019-05-25T10:30:10.919Z,19.67
2019-05-25T10:32:40.401Z,16.00
2019-05-25T10:35:10.385Z,14.73
2019-05-25T10:37:39.938Z,15.03
2019-05-25T10:40:09.927Z,16.90
2019-05-25T10:42:39.403Z,14.83
2019-05-25T10:45:09.333Z,18.03
2019-05-25T10:47:40.522Z,15.57
2019-05-25T10:50:12.120Z,18.20
2019-05-25T10:52:41.652Z,17.33
2019-05-25T10:55:11.587Z,14.90
2019-05-25T10:57:41.256Z,15.47
2019-05-25T11:00:11.959Z,17.77
2019-05-25T11:02:41.561Z,21.00
2019-05-25T11:05:11.414Z,17.17
2019-05-25T11:07:41.017Z,16.87
2019-05-25T11:10:11.933Z,19.73
2019-05-25T11:12:41.411Z,21.77
2019-05-25T11:15:11.063Z,16.97
2019-05-25T11:17:40.573Z,15.90
2019-05-25T11:20:10.630Z,16.20
2019-05-25T11:22:40.228Z,18.20
2019-05-25T11:25:10.504Z,8.20
2019-05-25T11:27:39.996Z,9.57
2019-05-25T11:30:10.488Z,14.20
2019-05-25T11:32:40.069Z,11.93
2019-05-25T11:35:09.788Z,11.97
2019-05-25T11:37:40.123Z,11.57
2019-05-25T11:40:10.018Z,9.27
2019-05-25T11:42:39.521Z,9.97
2019-05-25T11:45:09.884Z,9.53
2019-05-25T11:47:39.442Z,12.27
2019-05-25T11:50:09.276Z,10.03
2019-05-25T11:52:39.086Z,10.40
2019-05-25T11:55:09.089Z,10.47
2019-05-25T11:57:38.574Z,9.23
2019-05-25T12:00:23.734Z,8.37
2019-05-25T12:02:41.188Z,11.00
2019-05-25T12:05:11.174Z,8.13
2019-05-25T12:07:44.488Z,8.70
2019-05-25T12:10:12.497Z,8.60
2019-05-25T12:12:42.037Z,10.23
2019-05-25T12:15:11.858Z,10.43
2019-05-25T12:17:41.429Z,10.77
2019-05-25T12:20:13.105Z,10.73
2019-05-25T12:22:42.662Z,9.27
2019-05-25T12:25:12.974Z,12.37
2019-05-25T12:27:42.526Z,11.30
2019-05-25T12:30:12.378Z,10.50
2019-05-25T12:32:41.957Z,11.57
2019-05-25T12:35:11.716Z,11.23
2019-05-25T12:37:41.269Z,11.27
2019-05-25T12:40:11.106Z,11.53
2019-05-25T12:42:40.661Z,12.23
2019-05-25T12:45:10.251Z,11.87
2019-05-25T12:47:39.829Z,13.10
2019-05-25T12:50:09.470Z,12.13
2019-05-25T12:52:39.091Z,13.23
2019-05-25T12:55:09.733Z,10.93
2019-05-25T12:57:39.271Z,10.30
2019-05-25T13:00:16.921Z,11.20
2019-05-25T13:02:40.216Z,10.67
2019-05-25T13:05:10.042Z,11.97
2019-05-25T13:07:39.589Z,10.33
2019-05-25T13:10:10.533Z,10.27
2019-05-25T13:12:40.047Z,12.90
2019-05-25T13:15:10.201Z,9.70
2019-05-25T13:17:39.672Z,8.73
2019-05-25T13:20:09.438Z,8.70
2019-05-25T13:22:39.151Z,16.93
2019-05-25T13:25:08.918Z,7.90
2019-05-25T13:27:38.467Z,4.63
2019-05-25T13:30:08.385Z,6.97
2019-05-25T13:32:37.951Z,2.90
2019-05-25T13:35:07.477Z,2.77
2019-05-25T13:37:36.983Z,2.53
2019-05-25T13:40:07.303Z,5.93
2019-05-25T13:42:36.820Z,3.00
2019-05-25T13:45:08.049Z,3.03
2019-05-25T13:47:37.554Z,2.97
2019-05-25T13:50:08.847Z,3.57
2019-05-25T13:52:38.327Z,3.33
2019-05-25T13:55:08.093Z,5.33
2019-05-25T13:57:37.646Z,4.10
2019-05-25T14:00:07.885Z,4.23
2019-05-25T14:02:37.397Z,4.80
2019-05-25T14:05:07.242Z,4.03
2019-05-25T14:07:36.770Z,4.70
2019-05-25T14:10:08.426Z,4.17
2019-05-25T14:12:37.976Z,5.00
2019-05-25T14:15:08.256Z,4.43
2019-05-25T14:17:37.985Z,4.23
2019-05-25T14:20:07.996Z,5.83
2019-05-25T14:22:37.458Z,4.90
2019-05-25T14:25:07.469Z,5.30
2019-05-25T14:27:36.942Z,5.30
2019-05-25T14:30:07.678Z,5.60
2019-05-25T14:32:37.260Z,5.10
2019-05-25T14:35:07.004Z,5.13
2019-05-25T14:37:36.595Z,5.83
2019-05-25T14:40:11.084Z,4.77
2019-05-25T14:42:38.893Z,5.23
2019-05-25T14:45:09.900Z,4.70
2019-05-25T14:47:39.395Z,4.73
2019-05-25T14:50:09.195Z,8.30
2019-05-25T14:52:38.675Z,5.80
2019-05-25T14:55:08.414Z,8.40
2019-05-25T14:57:37.877Z,6.50
2019-05-25T15:00:10.248Z,8.97
2019-05-25T15:02:39.916Z,7.10
2019-05-25T15:05:09.817Z,7.47
2019-05-25T15:07:39.306Z,7.20
2019-05-25T15:10:09.198Z,9.53
2019-05-25T15:12:38.672Z,6.50
2019-05-25T15:15:09.282Z,7.40
2019-05-25T15:17:38.749Z,7.50
2019-05-25T15:20:09.623Z,7.47
2019-05-25T15:22:39.111Z,6.97
2019-05-25T15:25:08.879Z,7.70
2019-05-25T15:27:38.378Z,8.33
2019-05-25T15:30:08.285Z,7.50
2019-05-25T15:32:37.759Z,9.30
2019-05-25T15:35:07.532Z,8.77
2019-05-25T15:37:37.101Z,8.13
2019-05-25T15:40:09.726Z,9.77
2019-05-25T15:42:39.219Z,9.50
2019-05-25T15:45:09.060Z,11.53
2019-05-25T15:47:38.553Z,12.60
2019-05-25T15:50:10.034Z,13.17
2019-05-25T15:52:39.627Z,10.10
2019-05-25T15:55:09.462Z,10.80
2019-05-25T15:57:39.087Z,11.40
2019-05-25T16:00:11.026Z,11.67
2019-05-25T16:02:40.514Z,12.07
2019-05-25T16:05:10.360Z,10.90
2019-05-25T16:07:42.270Z,11.57
2019-05-25T16:10:11.960Z,10.57
2019-05-25T16:12:41.434Z,11.03
2019-05-25T16:15:11.124Z,11.17
2019-05-25T16:17:40.624Z,13.43
2019-05-25T16:20:10.112Z,14.23
2019-05-25T16:22:40.015Z,14.63
2019-05-25T16:25:09.514Z,13.37
2019-05-25T16:27:39.097Z,14.73
2019-05-25T16:30:08.882Z,13.93
2019-05-25T16:33:09.993Z,13.20
2019-05-25T16:35:10.032Z,12.40
2019-05-25T16:37:39.842Z,12.27
2019-05-25T16:40:09.849Z,14.13
2019-05-25T16:42:39.390Z,11.23
2019-05-25T16:45:09.561Z,12.77
2019-05-25T16:47:39.055Z,12.03
2019-05-25T16:50:09.168Z,12.57
2019-05-25T16:52:38.675Z,11.43
2019-05-25T16:55:08.500Z,14.07
2019-05-25T16:57:38.075Z,14.43
2019-05-25T17:00:09.350Z,12.17
2019-05-25T17:02:38.967Z,12.20
2019-05-25T17:05:08.822Z,12.20
2019-05-25T17:07:38.428Z,10.90
2019-05-25T17:10:08.023Z,9.83
2019-05-25T17:12:37.575Z,13.40
2019-05-25T17:15:07.143Z,11.40
2019-05-25T17:17:36.679Z,11.67
2019-05-25T17:20:06.500Z,9.90
2019-05-25T17:22:35.996Z,10.93
2019-05-25T17:25:07.202Z,15.43
2019-05-25T17:27:36.708Z,15.53
2019-05-25T17:30:07.367Z,16.83
2019-05-25T17:32:36.854Z,17.23
2019-05-25T17:35:06.761Z,15.27
2019-05-25T17:37:36.332Z,14.53
2019-05-25T17:40:07.379Z,12.77
2019-05-25T17:42:37.224Z,12.70
2019-05-25T17:45:07.248Z,12.17
2019-05-25T17:47:36.903Z,11.50
2019-05-25T17:50:07.883Z,10.60
2019-05-25T17:52:37.468Z,9.53
2019-05-25T17:55:07.567Z,9.27
2019-05-25T17:57:37.049Z,8.57
2019-05-25T18:00:08.636Z,8.57
2019-05-25T18:02:38.112Z,8.40
2019-05-25T18:05:08.509Z,8.67
2019-05-25T18:07:38.138Z,9.50
2019-05-25T18:10:08.174Z,9.20
2019-05-25T18:12:37.758Z,9.10
2019-05-25T18:15:09.641Z,10.97
2019-05-25T18:17:39.113Z,11.13
2019-05-25T18:20:10.252Z,10.20
2019-05-25T18:22:39.730Z,13.13
2019-05-25T18:25:09.274Z,14.77
2019-05-25T18:27:38.830Z,15.83
2019-05-25T18:30:09.990Z,14.67
2019-05-25T18:32:39.466Z,13.73
2019-05-25T18:35:09.151Z,13.00
2019-05-25T18:37:38.787Z,14.70
2019-05-25T18:40:09.542Z,13.53
2019-05-25T18:42:39.199Z,15.47
2019-05-25T18:45:08.849Z,13.50
2019-05-25T18:47:38.389Z,13.07
2019-05-25T18:50:09.573Z,13.37
2019-05-25T18:52:39.048Z,14.27
2019-05-25T18:55:09.273Z,14.60
2019-05-25T18:57:38.781Z,14.53
2019-05-25T19:00:08.499Z,15.40
2019-05-25T19:02:38.058Z,15.40
2019-05-25T19:05:08.026Z,15.47
2019-05-25T19:07:37.590Z,15.03
2019-05-25T19:10:10.063Z,15.60
2019-05-25T19:12:39.642Z,17.17
2019-05-25T19:15:09.980Z,14.00
2019-05-25T19:17:39.571Z,13.43
2019-05-25T19:20:09.341Z,13.20
2019-05-25T19:22:38.838Z,16.17
2019-05-25T19:25:09.294Z,27.63
2019-05-25T19:27:38.872Z,19.07
2019-05-25T19:30:10.290Z,17.00
2019-05-25T19:32:39.784Z,14.57
2019-05-25T19:35:10.453Z,15.50
2019-05-25T19:37:42.445Z,17.57
2019-05-25T19:40:11.596Z,20.07
2019-05-25T19:42:41.239Z,20.10
2019-05-25T19:45:12.009Z,17.30
2019-05-25T19:47:41.507Z,16.83
2019-05-25T19:50:11.337Z,18.80
2019-05-25T19:52:40.895Z,18.70
2019-05-25T19:55:10.829Z,16.33
2019-05-25T19:57:40.340Z,14.83
2019-05-25T20:00:10.988Z,17.13
2019-05-25T20:02:40.760Z,16.00
2019-05-25T20:05:16.810Z,14.67
2019-05-25T20:07:42.657Z,14.00
2019-05-25T20:10:12.384Z,13.20
2019-05-25T20:12:41.921Z,13.13
2019-05-25T20:15:11.787Z,13.27
2019-05-25T20:17:41.260Z,12.20
2019-05-25T20:20:11.222Z,11.40
2019-05-25T20:22:40.718Z,12.13
2019-05-25T20:25:10.251Z,12.37
2019-05-25T20:27:39.754Z,13.53
2019-05-25T20:30:09.475Z,11.17
2019-05-25T20:32:39.260Z,10.93
2019-05-25T20:35:09.774Z,11.67
2019-05-25T20:37:39.264Z,12.60
2019-05-25T20:40:10.455Z,10.77
2019-05-25T20:42:40.256Z,10.73
2019-05-25T20:45:10.104Z,13.30
2019-05-25T20:47:39.663Z,10.33
2019-05-25T20:50:09.704Z,10.87
2019-05-25T20:52:39.210Z,11.27
2019-05-25T20:55:08.985Z,10.90
2019-05-25T20:57:38.470Z,12.23
2019-05-25T21:00:08.587Z,12.70
2019-05-25T21:02:38.101Z,13.00
2019-05-25T21:05:07.891Z,14.87
2019-05-25T21:07:37.389Z,11.43
2019-05-25T21:10:07.549Z,12.00
2019-05-25T21:12:37.086Z,11.40
2019-05-25T21:15:08.411Z,11.97
2019-05-25T21:17:37.899Z,13.10
2019-05-25T21:20:07.809Z,13.50
2019-05-25T21:22:37.287Z,12.50
2019-05-25T21:25:08.480Z,12.30
2019-05-25T21:27:37.979Z,11.67
2019-05-25T21:30:08.851Z,12.13
2019-05-25T21:32:38.396Z,12.13
2019-05-25T21:35:08.260Z,11.90
2019-05-25T21:37:37.850Z,11.83
2019-05-25T21:40:08.198Z,12.77
2019-05-25T21:42:37.704Z,13.83
2019-05-25T21:45:08.064Z,12.77
2019-05-25T21:47:37.650Z,12.57
2019-05-25T21:50:07.906Z,14.40
2019-05-25T21:52:37.669Z,14.67
2019-05-25T21:55:07.404Z,14.67
2019-05-25T21:57:36.933Z,15.47
2019-05-25T22:00:10.107Z,13.60
2019-05-25T22:02:39.629Z,13.30
2019-05-25T22:05:09.414Z,15.43
2019-05-25T22:07:38.966Z,15.20
2019-05-25T22:10:09.033Z,13.87
2019-05-25T22:12:40.264Z,16.37
2019-05-25T22:15:11.061Z,16.30
2019-05-25T22:17:40.591Z,15.70
2019-05-25T22:20:10.451Z,17.63
2019-05-25T22:22:40.045Z,19.70
2019-05-25T22:25:10.684Z,18.50
2019-05-25T22:27:40.190Z,17.57
2019-05-25T22:30:10.263Z,16.33
2019-05-25T22:32:39.886Z,14.60
2019-05-25T22:35:09.741Z,15.07
2019-05-25T22:37:39.245Z,13.57
2019-05-25T22:40:09.112Z,14.23
2019-05-25T22:42:38.651Z,15.27
2019-05-25T22:45:08.562Z,14.37
2019-05-25T22:47:38.255Z,13.27
2019-05-25T22:50:08.427Z,14.47
2019-05-25T22:52:38.011Z,13.77
2019-05-25T22:55:07.768Z,17.93
2019-05-25T22:57:37.341Z,14.17
2019-05-25T23:00:08.170Z,14.13
2019-05-25T23:02:37.794Z,13.80
2019-05-25T23:05:07.699Z,14.17
2019-05-25T23:07:37.229Z,14.27
2019-05-25T23:10:08.430Z,14.70
2019-05-25T23:12:38.017Z,15.03
2019-05-25T23:15:08.079Z,13.10
2019-05-25T23:17:37.805Z,14.47
2019-05-25T23:20:08.722Z,13.17
2019-05-25T23:22:38.402Z,14.90
2019-05-25T23:25:08.269Z,12.47
2019-05-25T23:27:37.785Z,13.80
2019-05-25T23:30:07.737Z,13.87
2019-05-25T23:32:37.213Z,16.07
2019-05-25T23:35:07.195Z,11.67
2019-05-25T23:37:36.664Z,11.80
2019-05-25T23:40:08.223Z,13.13
2019-05-25T23:42:37.791Z,12.83
2019-05-25T23:45:07.864Z,14.07
2019-05-25T23:47:37.373Z,15.40
2019-05-25T23:50:07.932Z,15.10
2019-05-25T23:52:37.496Z,16.33
2019-05-25T23:55:07.183Z,14.17
2019-05-25T23:57:36.720Z,14.17
